createdAt,value
2022-08-28T00:01:39.719Z,18.42
2022-08-28T00:06:18.598Z,18.40
2022-08-28T00:10:27.077Z,18.41
2022-08-28T00:15:05.059Z,18.40
2022-08-28T00:29:37.213Z,18.35
2022-08-28T00:55:11.831Z,18.28
2022-08-28T01:04:34.970Z,18.21
2022-08-28T01:08:59.021Z,18.24
2022-08-28T01:18:08.096Z,18.26
2022-08-28T01:23:17.951Z,18.26
2022-08-28T01:37:20.897Z,18.27
2022-08-28T01:41:51.132Z,18.24
2022-08-28T01:51:10.174Z,18.03
2022-08-28T01:55:40.640Z,17.93
2022-08-28T02:04:32.510Z,17.87
2022-08-28T02:08:58.914Z,17.77
2022-08-28T02:13:19.564Z,17.67
2022-08-28T02:18:25.157Z,17.55
2022-08-28T02:22:36.632Z,17.46
2022-08-28T02:27:11.094Z,17.37
2022-08-28T02:31:47.846Z,17.38
2022-08-28T02:36:01.731Z,17.42
2022-08-28T02:40:18.490Z,17.45
2022-08-28T02:44:26.558Z,17.57
2022-08-28T02:48:53.047Z,17.64
2022-08-28T02:53:06.892Z,17.71
2022-08-28T03:06:50.234Z,17.88
2022-08-28T03:11:00.096Z,17.92
2022-08-28T03:15:11.803Z,17.97
2022-08-28T03:23:50.526Z,18.00
2022-08-28T03:28:04.874Z,17.89
2022-08-28T03:32:11.232Z,17.80
2022-08-28T03:36:22.683Z,17.71
2022-08-28T03:40:28.919Z,17.67
2022-08-28T03:44:35.372Z,17.67
2022-08-28T03:48:45.967Z,17.71
2022-08-28T03:53:11.326Z,17.71
2022-08-28T03:57:22.884Z,17.61
2022-08-28T04:01:27.192Z,17.64
2022-08-28T04:05:30.009Z,17.65
2022-08-28T04:09:47.169Z,17.71
2022-08-28T04:14:03.297Z,17.74
2022-08-28T04:22:38.281Z,17.86
2022-08-28T04:31:37.590Z,17.96
2022-08-28T04:35:58.443Z,18.02
2022-08-28T04:40:27.297Z,17.97
2022-08-28T04:54:24.478Z,17.95
2022-08-28T05:08:51.292Z,18.14
2022-08-28T05:18:21.311Z,18.24
2022-08-28T05:22:51.114Z,18.29
2022-08-28T05:37:19.434Z,18.44
2022-08-28T05:42:24.163Z,18.43
2022-08-28T05:46:49.943Z,18.33
2022-08-28T05:51:24.990Z,18.38
2022-08-28T05:55:32.814Z,18.49
2022-08-28T05:59:34.421Z,18.71
2022-08-28T06:04:12.877Z,18.73
2022-08-28T06:08:38.332Z,18.83
2022-08-28T06:13:12.732Z,18.97
2022-08-28T06:17:24.066Z,19.17
2022-08-28T06:21:47.776Z,19.33
2022-08-28T06:26:01.584Z,19.52
2022-08-28T06:35:26.890Z,19.94
2022-08-28T06:43:59.714Z,20.06
2022-08-28T06:48:34.134Z,20.08
2022-08-28T06:57:11.994Z,20.07
2022-08-28T07:01:38.068Z,20.00
2022-08-28T07:05:59.876Z,19.97
2022-08-28T07:15:33.553Z,19.98
2022-08-28T07:19:36.507Z,20.02
2022-08-28T07:23:47.904Z,20.05
2022-08-28T07:28:03.718Z,20.13
2022-08-28T07:32:07.135Z,20.30
2022-08-28T07:36:34.207Z,20.47
2022-08-28T07:40:49.631Z,20.62
2022-08-28T07:45:04.871Z,20.90
2022-08-28T07:49:08.494Z,21.11
2022-08-28T07:57:41.834Z,21.53
2022-08-28T08:01:50.335Z,22.00
2022-08-28T08:10:42.453Z,22.76
2022-08-28T08:14:46.090Z,22.77
2022-08-28T08:18:53.814Z,23.02
2022-08-28T08:22:55.474Z,23.19
2022-08-28T08:27:00.950Z,23.37
2022-08-28T08:31:12.922Z,23.75
2022-08-28T08:35:14.316Z,23.66
2022-08-28T08:39:16.093Z,23.39
2022-08-28T08:43:21.303Z,23.17
2022-08-28T08:47:49.481Z,22.97
2022-08-28T08:52:04.505Z,22.71
2022-08-28T08:56:06.498Z,22.53
2022-08-28T09:00:15.570Z,22.33
2022-08-28T09:04:46.338Z,22.15
2022-08-28T09:08:52.586Z,21.97
2022-08-28T09:12:54.539Z,21.84
2022-08-28T09:16:56.873Z,21.74
2022-08-28T09:20:59.234Z,21.66
2022-08-28T09:25:00.633Z,21.60
2022-08-28T09:29:06.829Z,21.60
2022-08-28T09:33:09.006Z,21.64
2022-08-28T09:37:25.983Z,21.66
2022-08-28T09:41:46.281Z,21.67
2022-08-28T09:45:58.452Z,21.73
2022-08-28T09:50:41.651Z,21.85
2022-08-28T09:54:45.305Z,22.07
2022-08-28T09:58:51.211Z,22.46
2022-08-28T10:03:18.198Z,22.94
2022-08-28T10:07:26.806Z,23.46
2022-08-28T10:12:06.941Z,23.93
2022-08-28T10:16:17.100Z,24.13
2022-08-28T10:20:40.450Z,24.69
2022-08-28T10:25:07.495Z,25.12
2022-08-28T10:29:12.413Z,25.21
2022-08-28T10:33:44.325Z,25.41
2022-08-28T10:37:45.684Z,25.60
2022-08-28T10:41:51.096Z,25.86
2022-08-28T10:45:53.204Z,25.90
2022-08-28T10:50:01.808Z,25.99
2022-08-28T10:54:11.137Z,25.93
2022-08-28T10:58:24.116Z,25.83
2022-08-28T11:02:30.615Z,25.80
2022-08-28T11:06:38.793Z,25.79
2022-08-28T11:10:46.894Z,25.89
2022-08-28T11:14:51.156Z,25.85
2022-08-28T11:19:17.392Z,25.93
2022-08-28T11:23:32.261Z,26.09
2022-08-28T11:27:38.969Z,26.55
2022-08-28T11:31:44.090Z,27.03
2022-08-28T11:35:50.897Z,27.48
2022-08-28T11:40:29.351Z,27.65
2022-08-28T11:45:08.247Z,27.74
2022-08-28T11:49:32.435Z,27.75
2022-08-28T11:53:57.119Z,27.93
2022-08-28T12:02:39.346Z,28.35
2022-08-28T12:07:11.568Z,28.19
2022-08-28T12:11:39.286Z,28.26
2022-08-28T12:15:42.966Z,28.38
2022-08-28T12:19:56.417Z,28.44
2022-08-28T12:24:19.023Z,28.07
2022-08-28T12:28:39.509Z,27.62
2022-08-28T12:32:51.796Z,27.29
2022-08-28T12:37:02.024Z,26.94
2022-08-28T12:41:03.952Z,26.71
2022-08-28T12:45:10.345Z,26.85
2022-08-28T12:49:37.073Z,27.42
2022-08-28T12:53:40.409Z,27.91
2022-08-28T12:57:45.871Z,28.20
2022-08-28T13:01:47.480Z,28.43
2022-08-28T13:05:58.741Z,28.56
2022-08-28T13:10:06.206Z,28.77
2022-08-28T13:14:08.945Z,28.83
2022-08-28T13:18:10.848Z,28.94
2022-08-28T13:22:39.073Z,28.94
2022-08-28T13:26:40.859Z,29.17
2022-08-28T13:30:42.311Z,29.00
2022-08-28T13:35:22.123Z,29.03
2022-08-28T13:39:24.526Z,29.27
2022-08-28T13:43:29.364Z,28.99
2022-08-28T13:47:31.357Z,28.65
2022-08-28T13:51:33.412Z,28.32
2022-08-28T13:55:40.954Z,28.08
2022-08-28T13:59:42.731Z,27.99
2022-08-28T14:03:44.799Z,27.88
2022-08-28T14:07:46.241Z,27.83
2022-08-28T14:11:48.206Z,27.80
2022-08-28T14:15:50.635Z,27.74
2022-08-28T14:19:52.069Z,27.77
2022-08-28T14:23:53.703Z,27.68
2022-08-28T14:27:55.923Z,27.54
2022-08-28T14:31:59.929Z,27.77
2022-08-28T14:36:01.950Z,27.95
2022-08-28T14:40:05.387Z,28.21
2022-08-28T14:44:09.071Z,28.42
2022-08-28T14:48:10.547Z,28.64
2022-08-28T14:52:12.043Z,28.73
2022-08-28T14:56:13.639Z,28.61
2022-08-28T15:00:16.344Z,28.77
2022-08-28T15:04:22.760Z,29.05
2022-08-28T15:08:24.286Z,29.34
2022-08-28T15:12:25.780Z,29.40
2022-08-28T15:16:30.674Z,29.32
2022-08-28T15:20:40.144Z,29.39
2022-08-28T15:24:41.569Z,29.33
2022-08-28T15:28:43.358Z,29.02
2022-08-28T15:32:46.128Z,28.64
2022-08-28T15:36:54.833Z,28.24
2022-08-28T15:41:15.957Z,27.94
2022-08-28T15:45:18.212Z,27.68
2022-08-28T15:49:20.733Z,27.49
2022-08-28T15:53:25.421Z,27.38
2022-08-28T15:57:26.791Z,27.24
2022-08-28T16:01:28.349Z,27.06
2022-08-28T16:05:34.925Z,27.16
2022-08-28T16:09:40.959Z,27.53
2022-08-28T16:13:42.490Z,27.53
2022-08-28T16:17:43.942Z,27.36
2022-08-28T16:21:45.577Z,27.07
2022-08-28T16:25:47.430Z,26.86
2022-08-28T16:29:52.858Z,26.69
2022-08-28T16:33:55.047Z,26.69
2022-08-28T16:37:57.435Z,26.59
2022-08-28T16:41:59.865Z,26.45
2022-08-28T16:46:01.538Z,26.37
2022-08-28T16:50:08.286Z,26.25
2022-08-28T16:54:10.608Z,26.12
2022-08-28T16:58:16.748Z,25.98
2022-08-28T17:02:22.924Z,25.84
2022-08-28T17:06:30.478Z,25.68
2022-08-28T17:10:32.178Z,25.54
2022-08-28T17:14:34.041Z,25.43
2022-08-28T17:18:36.665Z,25.34
2022-08-28T17:22:39.136Z,25.20
2022-08-28T17:26:42.018Z,25.10
2022-08-28T17:30:43.757Z,25.00
2022-08-28T17:34:45.369Z,24.94
2022-08-28T17:38:47.437Z,24.85
2022-08-28T17:42:49.265Z,24.73
2022-08-28T17:46:51.858Z,24.62
2022-08-28T17:50:53.434Z,24.52
2022-08-28T17:54:55.895Z,24.42
2022-08-28T17:58:57.835Z,24.30
2022-08-28T18:03:00.009Z,24.22
2022-08-28T18:07:01.734Z,24.08
2022-08-28T18:11:04.421Z,23.91
2022-08-28T18:15:08.553Z,23.67
2022-08-28T18:19:11.125Z,23.41
2022-08-28T18:23:12.850Z,23.31
2022-08-28T18:27:16.856Z,23.24
2022-08-28T18:31:18.925Z,23.16
2022-08-28T18:35:30.295Z,23.10
2022-08-28T18:39:35.938Z,23.01
2022-08-28T18:43:37.609Z,22.93
2022-08-28T18:47:39.293Z,22.86
2022-08-28T18:51:43.357Z,22.75
2022-08-28T18:55:45.876Z,22.55
2022-08-28T18:59:48.274Z,22.28
2022-08-28T19:03:50.342Z,22.12
2022-08-28T19:07:51.996Z,21.95
2022-08-28T19:11:54.082Z,21.90
2022-08-28T19:15:55.721Z,21.88
2022-08-28T19:19:57.460Z,21.80
2022-08-28T19:23:58.867Z,21.74
2022-08-28T19:28:01.638Z,21.64
2022-08-28T19:32:03.848Z,21.62
2022-08-28T19:36:05.873Z,21.65
2022-08-28T19:40:07.803Z,21.68
2022-08-28T19:44:10.577Z,21.63
2022-08-28T19:48:12.306Z,21.54
2022-08-28T19:52:13.961Z,21.44
2022-08-28T19:56:15.494Z,21.36
2022-08-28T20:00:19.462Z,21.28
2022-08-28T20:04:20.999Z,21.20
2022-08-28T20:08:23.921Z,21.06
2022-08-28T20:12:25.318Z,20.95
2022-08-28T20:16:28.182Z,20.88
2022-08-28T20:20:30.166Z,20.78
2022-08-28T20:24:31.614Z,20.74
2022-08-28T20:28:33.422Z,20.69
2022-08-28T20:32:35.785Z,20.66
2022-08-28T20:36:42.153Z,20.64
2022-08-28T20:40:43.635Z,20.60
2022-08-28T20:44:45.053Z,20.56
2022-08-28T20:48:46.730Z,20.55
2022-08-28T20:52:48.180Z,20.52
2022-08-28T20:56:51.697Z,20.50
2022-08-28T21:00:55.052Z,20.42
2022-08-28T21:05:01.980Z,20.40
2022-08-28T21:09:04.604Z,20.36
2022-08-28T21:13:07.340Z,20.29
2022-08-28T21:17:09.685Z,20.25
2022-08-28T21:21:12.232Z,20.22
2022-08-28T21:25:17.722Z,20.17
2022-08-28T21:29:21.097Z,20.12
2022-08-28T21:33:23.455Z,20.07
2022-08-28T21:37:24.937Z,20.00
2022-08-28T21:41:26.530Z,19.96
2022-08-28T21:45:30.643Z,19.92
2022-08-28T21:49:32.382Z,19.87
2022-08-28T21:53:37.573Z,19.84
2022-08-28T21:57:39.763Z,19.82
2022-08-28T22:01:41.521Z,19.78
2022-08-28T22:05:45.486Z,19.73
2022-08-28T22:09:47.197Z,19.68
2022-08-28T22:13:50.072Z,19.65
2022-08-28T22:17:53.309Z,19.59
2022-08-28T22:22:13.677Z,19.56
2022-08-28T22:26:18.908Z,19.49
2022-08-28T22:30:21.724Z,19.47
2022-08-28T22:34:23.162Z,19.42
2022-08-28T22:38:25.869Z,19.38
2022-08-28T22:42:27.553Z,19.33
2022-08-28T22:46:29.773Z,19.29
2022-08-28T22:50:31.734Z,19.24
2022-08-28T22:54:33.490Z,19.23
2022-08-28T22:58:35.159Z,19.16
2022-08-28T23:02:38.045Z,19.12
2022-08-28T23:06:40.359Z,19.08
2022-08-28T23:10:58.432Z,19.04
2022-08-28T23:15:02.233Z,18.99
2022-08-28T23:19:09.196Z,18.95
2022-08-28T23:23:11.366Z,18.89
2022-08-28T23:27:34.615Z,18.83
2022-08-28T23:31:35.331Z,18.75
2022-08-28T23:35:37.344Z,18.71
2022-08-28T23:39:38.805Z,18.67
2022-08-28T23:43:40.262Z,18.49
2022-08-28T23:47:43.795Z,18.15
2022-08-28T23:51:46.206Z,17.80
2022-08-28T23:55:49.777Z,17.63
2022-08-28T23:59:51.643Z,17.41
